createdAt,value
2023-01-05T00:00:50.557Z,6
2023-01-05T00:05:50.000Z,7
2023-01-05T00:10:50.059Z,7
2023-01-05T00:15:50.536Z,7
2023-01-05T00:20:50.020Z,6
2023-01-05T00:25:50.029Z,6
2023-01-05T00:30:50.077Z,6
2023-01-05T00:35:50.040Z,6
2023-01-05T00:40:50.054Z,7
2023-01-05T00:45:50.707Z,7
2023-01-05T00:50:50.128Z,6
2023-01-05T00:55:50.087Z,7
2023-01-05T01:00:50.120Z,6
2023-01-05T01:05:50.630Z,8
2023-01-05T01:10:50.122Z,8
2023-01-05T01:15:50.615Z,8
2023-01-05T01:20:50.115Z,8
2023-01-05T01:25:50.658Z,8
2023-01-05T01:30:50.208Z,8
2023-01-05T01:35:50.165Z,7
2023-01-05T01:40:50.247Z,7
2023-01-05T01:45:50.722Z,7
2023-01-05T01:50:50.207Z,8
2023-01-05T01:55:50.181Z,7
2023-01-05T02:00:50.238Z,6
2023-01-05T02:05:50.717Z,7
2023-01-05T02:10:50.263Z,6
2023-01-05T02:15:50.235Z,6
2023-01-05T02:20:50.236Z,6
2023-01-05T02:25:50.740Z,6
2023-01-05T02:30:50.295Z,6
2023-01-05T02:35:50.369Z,6
2023-01-05T02:40:50.271Z,6
2023-01-05T02:45:50.320Z,6
2023-01-05T02:50:50.835Z,5
2023-01-05T02:55:50.299Z,6
2023-01-05T03:00:50.442Z,6
2023-01-05T03:05:50.316Z,6
2023-01-05T03:10:50.850Z,6
2023-01-05T03:15:50.925Z,6
2023-01-05T03:20:50.422Z,7
2023-01-05T03:25:50.345Z,6
2023-01-05T03:45:51.252Z,6
2023-01-05T03:50:50.415Z,5
2023-01-05T03:55:50.922Z,4
2023-01-05T04:00:50.470Z,5
2023-01-05T04:05:50.579Z,5
2023-01-05T04:10:50.427Z,5
2023-01-05T04:15:50.990Z,5
2023-01-05T04:20:50.450Z,5
2023-01-05T04:25:51.180Z,5
2023-01-05T04:30:50.995Z,5
2023-01-05T04:50:51.362Z,5
2023-01-05T04:55:50.526Z,7
2023-01-05T05:00:50.529Z,7
2023-01-05T05:05:50.524Z,8
2023-01-05T05:10:51.206Z,7
2023-01-05T05:15:50.603Z,7
2023-01-05T05:20:50.554Z,7
2023-01-05T05:25:50.565Z,7
2023-01-05T05:30:51.160Z,7
2023-01-05T05:35:50.708Z,7
2023-01-05T05:40:51.231Z,9
2023-01-05T05:45:51.163Z,8
2023-01-05T05:50:50.632Z,8
2023-01-05T05:55:50.634Z,8
2023-01-05T06:00:50.630Z,8
2023-01-05T06:05:51.164Z,8
2023-01-05T06:10:50.691Z,8
2023-01-05T06:15:50.709Z,8
2023-01-05T06:20:52.976Z,7
2023-01-05T06:25:50.896Z,8
2023-01-05T06:30:50.695Z,7
2023-01-05T06:35:50.684Z,6
2023-01-05T06:40:51.213Z,7
2023-01-05T06:45:50.963Z,6
2023-01-05T06:50:50.846Z,6
2023-01-05T06:55:50.726Z,6
2023-01-05T07:00:51.259Z,6
2023-01-05T07:05:51.236Z,5
2023-01-05T07:10:50.771Z,6
2023-01-05T07:30:51.929Z,6
2023-01-05T07:35:50.800Z,4
2023-01-05T07:40:51.314Z,4
2023-01-05T07:45:55.701Z,4
2023-01-05T07:50:50.821Z,6
2023-01-05T07:55:51.513Z,4
2023-01-05T08:00:51.415Z,4
2023-01-05T08:05:50.883Z,4
2023-01-05T08:10:50.859Z,5
2023-01-05T08:15:51.620Z,5
2023-01-05T08:20:51.545Z,5
2023-01-05T08:25:50.951Z,5
2023-01-05T08:30:50.909Z,5
2023-01-05T08:35:50.997Z,5
2023-01-05T08:40:51.530Z,5
2023-01-05T08:45:51.007Z,6
2023-01-05T08:50:51.436Z,4
2023-01-05T08:55:50.949Z,6
2023-01-05T09:00:51.488Z,5
2023-01-05T09:05:51.103Z,5
2023-01-05T09:10:50.964Z,6
2023-01-05T09:30:51.983Z,6
2023-01-05T09:35:51.535Z,6
2023-01-05T09:40:51.102Z,6
2023-01-05T09:45:51.089Z,6
2023-01-05T09:50:51.313Z,5
2023-01-05T09:55:51.588Z,6
2023-01-05T10:00:51.056Z,6
2023-01-05T10:05:51.235Z,7
2023-01-05T10:10:51.193Z,6
2023-01-05T10:36:01.122Z,6
2023-01-05T10:40:51.129Z,5
2023-01-05T10:46:19.615Z,5
2023-01-05T10:50:51.196Z,5
2023-01-05T11:00:51.341Z,5
2023-01-05T11:05:51.684Z,5
2023-01-05T11:10:51.177Z,5
2023-01-05T11:15:51.249Z,5
2023-01-05T11:20:51.315Z,5
2023-01-05T11:25:51.202Z,5
2023-01-05T11:30:51.431Z,5
2023-01-05T11:35:51.748Z,4
2023-01-05T12:00:52.233Z,4
2023-01-05T12:05:51.296Z,4
2023-01-05T12:10:51.295Z,4
2023-01-05T12:15:51.343Z,4
2023-01-05T12:20:51.443Z,3
2023-01-05T12:25:51.324Z,3
2023-01-05T12:35:51.357Z,2
2023-01-05T12:40:51.470Z,3
2023-01-05T12:45:51.898Z,3
2023-01-05T12:50:51.872Z,3
2023-01-05T12:55:51.381Z,2
2023-01-05T13:00:51.463Z,3
2023-01-05T13:05:51.397Z,2
2023-01-05T13:10:51.392Z,2
2023-01-05T13:15:51.506Z,2
2023-01-05T13:20:51.631Z,2
2023-01-05T13:25:51.440Z,2
2023-01-05T13:30:51.445Z,4
2023-01-05T13:35:51.459Z,3
2023-01-05T13:40:51.574Z,3
2023-01-05T13:45:52.370Z,4
2023-01-05T13:50:51.471Z,5
2023-01-05T13:55:51.476Z,5
2023-01-05T14:00:52.263Z,5
2023-01-05T14:05:52.023Z,4
2023-01-05T14:10:51.662Z,5
2023-01-05T14:15:52.060Z,4
2023-01-05T14:20:51.632Z,5
2023-01-05T14:40:52.495Z,5
2023-01-05T14:45:53.032Z,3
2023-01-05T14:50:51.604Z,3
2023-01-05T14:55:51.601Z,3
2023-01-05T15:00:51.731Z,3
2023-01-05T15:05:51.633Z,3
2023-01-05T15:10:51.616Z,3
2023-01-05T15:15:52.134Z,3
2023-01-05T15:20:51.749Z,4
2023-01-05T15:25:54.008Z,4
2023-01-05T15:30:51.643Z,3
2023-01-05T15:35:52.296Z,5
2023-01-05T15:40:51.813Z,4
2023-01-05T15:45:52.226Z,4
2023-01-05T15:50:51.706Z,4
2023-01-05T15:55:52.211Z,4
2023-01-05T16:00:52.379Z,4
2023-01-05T16:05:51.780Z,4
2023-01-05T16:10:51.716Z,5
2023-01-05T16:15:52.232Z,7
2023-01-05T16:20:52.392Z,4
2023-01-05T16:25:52.395Z,4
2023-01-05T16:30:52.441Z,4
2023-01-05T16:35:52.312Z,5
2023-01-05T16:40:52.416Z,4
2023-01-05T16:45:52.008Z,5
2023-01-05T16:50:51.791Z,8
2023-01-05T16:55:55.073Z,6
2023-01-05T17:00:51.926Z,6
2023-01-05T17:05:51.816Z,6
2023-01-05T17:10:52.014Z,6
2023-01-05T17:15:52.554Z,7
2023-01-05T17:20:52.477Z,9
2023-01-05T17:30:51.886Z,8
2023-01-05T17:35:52.423Z,8
2023-01-05T17:40:52.139Z,9
2023-01-05T17:45:51.943Z,10
2023-01-05T17:50:52.904Z,12
2023-01-05T17:55:52.430Z,14
2023-01-05T18:00:52.209Z,10
2023-01-05T18:20:53.015Z,10
2023-01-05T18:25:51.970Z,12
2023-01-05T18:30:51.976Z,10
2023-01-05T18:40:52.275Z,9
2023-01-05T19:00:52.978Z,9
2023-01-05T19:05:52.067Z,10
2023-01-05T19:10:52.619Z,10
2023-01-05T19:15:52.095Z,11
2023-01-05T19:20:52.205Z,11
2023-01-05T19:25:52.071Z,12
2023-01-05T19:30:52.147Z,9
2023-01-05T19:35:52.624Z,6
2023-01-05T19:40:52.213Z,4
2023-01-05T19:55:52.995Z,4
2023-01-05T20:00:52.366Z,4
2023-01-05T20:05:52.144Z,8
2023-01-05T20:10:52.154Z,5
2023-01-05T20:15:52.730Z,8
2023-01-05T20:20:52.993Z,11
2023-01-05T20:35:53.087Z,11
2023-01-05T20:40:52.331Z,28
2023-01-05T20:45:52.753Z,10
2023-01-05T20:50:52.219Z,21
2023-01-05T20:55:52.303Z,21
2023-01-05T21:01:09.834Z,21
2023-01-05T21:05:52.763Z,16
2023-01-05T21:10:52.904Z,7
2023-01-05T21:15:52.821Z,6
2023-01-05T21:20:52.398Z,6
2023-01-05T21:26:05.271Z,4
2023-01-05T21:30:52.290Z,7
2023-01-05T21:35:52.303Z,14
2023-01-05T21:40:52.952Z,14
2023-01-05T21:45:52.386Z,12
2023-01-05T21:50:52.837Z,10
2023-01-05T21:55:52.345Z,31
2023-01-05T22:00:53.043Z,77
2023-01-05T22:05:52.523Z,30
2023-01-05T22:10:52.883Z,155
2023-01-05T22:15:52.370Z,78
2023-01-05T22:20:52.516Z,35
2023-01-05T22:25:52.435Z,35
2023-01-05T22:40:53.659Z,35
2023-01-05T22:45:52.489Z,14
2023-01-05T22:50:52.958Z,16
2023-01-05T22:55:52.521Z,15
2023-01-05T23:00:53.163Z,19
2023-01-05T23:05:52.458Z,20
2023-01-05T23:10:52.971Z,23
2023-01-05T23:15:52.614Z,19
2023-01-05T23:20:52.613Z,34
2023-01-05T23:25:52.528Z,26
2023-01-05T23:30:52.542Z,15
2023-01-05T23:35:52.650Z,12
2023-01-05T23:40:52.638Z,18
2023-01-05T23:45:52.559Z,19
2023-01-05T23:50:53.070Z,18
